Terminal Aerodrome Forecast
Issued by NWS Kansas City/Pleasant Hill, MO

Home | Current Version | Previous Version | Text Only | Print | Product List | Glossary On
Versions: 1 2 3 4 5 6 7 8 9 10 11 12 13 14 15 16 17
000
FTUS43 KEAX 060100 AAB
TAFMCI
TAF AMD
KMCI 060144Z 0602/0624 23011KT 3SM -TSRA BKN025CB
     FM060300 14011KT P6SM SCT050 BKN100
     FM061000 15014G25KT P6SM FEW040 SCT100
     FM061400 17018G28KT P6SM -SHRA VCTS BKN030CB=

USA.gov is the U.S. government's official web portal to all federal, state and local government web resources and services.